Topcliffe, United Kingdom
Current Conditions -  °F | °C
As of 9:50 AM on Tuesday 27 Jan 2015 (Local Time) from EGXZ Reporting Station
Broken Clouds Broken Clouds  
Wind Chill:   Ceiling: 2700
Heat Index:   Visibility: 6mi
Dew Point:   Wind: 7mph
Humidity: 81%   Direction: 240°WSW
Pressure: 30.24"   Gusts: NA
Location:  54.2°N, 1.38°W
Report Text: EGXZ 270950Z 24006KT 9999 BKN027 07/04 Q1024 BLU
Loading
Personal Weather Stations






























Interactive Weather Map New forecast layout! Learn more

10-Day Weather Forecast

Advertisements
Track Severe Weather on mobile